Time;durP1;ratioP1;P1;durP2;ratioP2;P2;SDS_P1;SDS_P2;PMS_P1;PMS_P2;Temp;Humidity;BMP_temperature;BMP_pressure;BME280_temperature;BME280_humidity;BME280_pressure;Samples;Min_cycle;Max_cycle;Signal;HPM_P1;HPM_P2
2021/11/11 00:00:13;;;;;;;29.50;16.30;;;8.60;99.90;;;;;;4982463;28;20481;-66
2021/11/11 00:02:40;;;;;;;36.07;20.20;;;8.70;99.90;;;;;;4980631;28;20427;-66
2021/11/11 00:05:07;;;;;;;31.57;18.43;;;8.70;99.90;;;;;;4980949;28;20434;-73
2021/11/11 00:07:33;;;;;;;35.60;18.30;;;8.70;99.90;;;;;;4981450;28;20518;-73
2021/11/11 00:10:00;;;;;;;34.33;19.30;;;8.70;99.90;;;;;;4980336;28;20833;-73
2021/11/11 00:12:27;;;;;;;30.10;17.70;;;8.70;99.90;;;;;;4998034;28;20528;-73
2021/11/11 00:14:53;;;;;;;33.77;19.33;;;8.80;99.90;;;;;;4980676;28;20431;-73
2021/11/11 00:17:19;;;;;;;34.70;20.07;;;8.70;99.90;;;;;;4978823;28;20433;-73
2021/11/11 00:19:45;;;;;;;34.77;20.10;;;8.70;99.90;;;;;;4996367;28;20427;-73
2021/11/11 00:22:11;;;;;;;30.90;19.83;;;8.70;99.90;;;;;;4982342;28;20426;-73
2021/11/11 00:24:37;;;;;;;35.23;19.63;;;8.70;99.90;;;;;;4980859;28;20198;-73
2021/11/11 00:27:03;;;;;;;30.07;19.07;;;8.70;99.90;;;;;;4998448;28;20430;-73
2021/11/11 00:29:29;;;;;;;39.73;19.33;;;8.70;99.90;;;;;;4976857;28;20251;-73
2021/11/11 00:31:54;;;;;;;39.20;19.43;;;8.70;99.90;;;;;;4981552;28;20579;-73
2021/11/11 00:34:20;;;;;;;36.27;18.77;;;8.60;99.90;;;;;;4982861;28;20167;-73
2021/11/11 00:36:46;;;;;;;32.00;17.20;;;8.60;99.90;;;;;;4983962;28;20178;-73
2021/11/11 00:39:11;;;;;;;32.73;18.23;;;8.70;99.90;;;;;;4983361;28;20190;-73
2021/11/11 00:41:37;;;;;;;43.67;18.67;;;8.70;99.90;;;;;;5001671;28;20195;-73
2021/11/11 00:44:03;;;;;;;28.70;17.90;;;8.70;99.90;;;;;;4985431;28;20194;-73
2021/11/11 00:46:29;;;;;;;36.03;19.30;;;8.70;99.90;;;;;;4981986;28;20269;-66
2021/11/11 00:48:55;;;;;;;33.70;17.80;;;8.70;99.90;;;;;;4983268;28;20465;-73
2021/11/11 00:51:20;;;;;;;27.97;17.93;;;8.70;99.90;;;;;;4984732;28;20195;-73
2021/11/11 00:53:46;;;;;;;33.20;18.10;;;8.70;99.90;;;;;;4984101;28;20437;-73
2021/11/11 00:56:12;;;;;;;29.70;16.70;;;8.70;99.90;;;;;;4983719;28;20184;-73
2021/11/11 00:58:38;;;;;;;31.07;16.73;;;8.70;99.90;;;;;;4983429;28;20220;-73
2021/11/11 01:01:03;;;;;;;33.43;18.47;;;8.70;99.90;;;;;;4984288;28;20192;-73
2021/11/11 01:03:35;;;;;;;32.80;18.73;;;8.70;99.90;;;;;;4981116;28;20183;-66
2021/11/11 01:06:01;;;;;;;32.60;19.80;;;8.60;99.90;;;;;;4972506;28;20500;-66
2021/11/11 01:08:28;;;;;;;43.07;20.47;;;8.60;99.90;;;;;;4973995;28;20430;-66
2021/11/11 01:10:55;;;;;;;37.23;19.77;;;8.60;99.90;;;;;;4999420;28;20988;-66
2021/11/11 01:13:21;;;;;;;37.27;19.80;;;8.60;99.90;;;;;;4984085;28;20480;-65
2021/11/11 01:15:47;;;;;;;38.53;21.50;;;8.60;99.90;;;;;;4999065;28;20509;-66
2021/11/11 01:18:12;;;;;;;33.53;17.80;;;8.60;99.90;;;;;;4985071;28;20822;-66
2021/11/11 01:20:38;;;;;;;35.10;19.07;;;8.60;99.90;;;;;;4981471;28;20176;-66
2021/11/11 01:23:04;;;;;;;30.43;18.63;;;8.60;99.90;;;;;;4982057;28;20215;-66
2021/11/11 01:25:35;;;;;;;39.90;20.87;;;8.60;99.90;;;;;;4984757;28;20218;-66
2021/11/11 01:28:00;;;;;;;39.93;19.87;;;8.60;99.90;;;;;;4984806;28;20176;-66
2021/11/11 01:30:26;;;;;;;36.83;19.57;;;8.60;99.90;;;;;;4983135;28;20991;-66
2021/11/11 01:32:52;;;;;;;35.17;18.70;;;8.60;99.90;;;;;;4983068;28;20179;-66
2021/11/11 01:35:18;;;;;;;33.97;21.20;;;8.60;99.90;;;;;;4983033;28;20274;-66
2021/11/11 01:37:44;;;;;;;34.87;19.73;;;8.60;99.90;;;;;;4984542;28;20183;-66
2021/11/11 01:40:11;;;;;;;35.87;19.53;;;8.60;99.90;;;;;;4980283;28;20443;-66
2021/11/11 01:42:46;;;;;;;34.60;20.50;;;8.60;99.90;;;;;;4983376;28;20430;-66
2021/11/11 01:45:13;;;;;;;30.17;18.13;;;8.60;99.90;;;;;;4979596;28;20434;-66
2021/11/11 01:47:40;;;;;;;35.27;19.23;;;8.60;99.90;;;;;;4983339;28;20431;-66
2021/11/11 01:50:06;;;;;;;29.83;18.20;;;8.60;99.90;;;;;;4980551;28;20467;-66
2021/11/11 01:52:32;;;;;;;34.53;20.00;;;8.60;99.90;;;;;;4983538;28;20467;-66
2021/11/11 01:54:57;;;;;;;32.90;18.80;;;8.60;99.90;;;;;;4981403;28;20654;-66
2021/11/11 01:57:25;;;;;;;32.80;19.50;;;8.60;99.90;;;;;;4982233;28;20689;-66
2021/11/11 01:59:52;;;;;;;43.57;21.67;;;8.60;99.90;;;;;;4979834;28;20187;-66
2021/11/11 02:02:28;;;;;;;31.60;19.83;;;8.60;99.90;;;;;;4984452;28;20428;-66
2021/11/11 02:04:54;;;;;;;35.80;22.13;;;8.60;99.90;;;;;;4981575;28;20426;-66
2021/11/11 02:07:20;;;;;;;32.87;19.50;;;8.60;99.90;;;;;;4997705;28;20437;-66
2021/11/11 02:09:45;;;;;;;41.43;22.67;;;8.60;99.90;;;;;;4983014;28;20431;-66
2021/11/11 02:12:11;;;;;;;47.37;22.33;;;8.60;99.90;;;;;;4983639;28;20294;-66
2021/11/11 02:14:37;;;;;;;39.17;23.23;;;8.60;99.90;;;;;;4983409;28;20180;-66
2021/11/11 02:17:03;;;;;;;40.37;21.17;;;8.60;99.90;;;;;;4982435;28;20434;-66
2021/11/11 02:19:29;;;;;;;42.43;23.60;;;8.60;99.90;;;;;;4983208;28;20214;-66
2021/11/11 02:21:55;;;;;;;33.23;21.60;;;8.50;99.90;;;;;;4984234;28;20274;-66
2021/11/11 02:24:21;;;;;;;37.20;23.47;;;8.50;99.90;;;;;;4979547;28;20187;-66
2021/11/11 02:26:49;;;;;;;36.63;21.43;;;8.50;99.90;;;;;;4983634;28;20505;-66
2021/11/11 02:29:15;;;;;;;35.10;22.40;;;8.60;99.90;;;;;;4981399;28;20541;-66
2021/11/11 02:31:40;;;;;;;42.10;25.57;;;8.60;99.90;;;;;;4982610;28;20633;-66
2021/11/11 02:34:06;;;;;;;35.90;21.20;;;8.50;99.90;;;;;;4981231;28;20242;-66
2021/11/11 02:36:32;;;;;;;45.77;24.23;;;8.50;99.90;;;;;;4984192;28;20189;-66
2021/11/11 02:38:57;;;;;;;48.20;24.30;;;8.50;99.90;;;;;;4983068;28;20245;-66
2021/11/11 02:41:24;;;;;;;43.37;24.07;;;8.50;99.90;;;;;;4982088;28;20215;-66
2021/11/11 02:43:50;;;;;;;40.73;24.77;;;8.60;99.90;;;;;;4983143;28;20187;-66
2021/11/11 02:46:16;;;;;;;31.10;20.70;;;8.60;99.90;;;;;;4981151;28;20525;-66
2021/11/11 02:48:42;;;;;;;35.90;21.53;;;8.60;99.90;;;;;;4982790;28;20262;-66
2021/11/11 02:51:08;;;;;;;40.87;22.33;;;8.60;99.90;;;;;;4981707;28;20630;-66
2021/11/11 02:53:33;;;;;;;34.97;21.77;;;8.60;99.90;;;;;;4982756;28;20499;-66
2021/11/11 02:55:59;;;;;;;45.23;24.30;;;8.60;99.90;;;;;;4983440;28;20496;-66
2021/11/11 02:58:26;;;;;;;37.80;23.70;;;8.60;99.90;;;;;;4982544;28;20223;-66
2021/11/11 03:01:00;;;;;;;35.93;21.67;;;8.50;99.90;;;;;;4981777;28;20249;-66
2021/11/11 03:03:28;;;;;;;37.57;22.43;;;8.50;99.90;;;;;;4982277;28;21025;-66
2021/11/11 03:05:54;;;;;;;34.13;21.33;;;8.50;99.90;;;;;;4982216;28;20442;-66
2021/11/11 03:08:20;;;;;;;29.13;19.07;;;8.60;99.90;;;;;;4998295;28;20447;-66
2021/11/11 03:10:47;;;;;;;36.00;22.87;;;8.60;99.90;;;;;;4981434;28;20994;-66
2021/11/11 03:13:14;;;;;;;32.97;21.70;;;8.60;99.90;;;;;;4983031;28;20175;-66
2021/11/11 03:15:42;;;;;;;40.47;22.97;;;8.60;99.90;;;;;;4978527;28;23304;-66
2021/11/11 03:18:08;;;;;;;33.63;22.53;;;8.60;99.90;;;;;;4982666;28;20991;-66
2021/11/11 03:20:34;;;;;;;36.90;21.83;;;8.60;99.90;;;;;;4980968;28;20624;-66
2021/11/11 03:23:00;;;;;;;38.37;24.60;;;8.60;99.90;;;;;;4982774;28;20799;-66
2021/11/11 03:25:28;;;;;;;37.13;23.00;;;8.60;99.90;;;;;;4980391;28;20237;-66
2021/11/11 03:27:55;;;;;;;42.90;23.10;;;8.60;99.90;;;;;;4982864;28;20445;-66
2021/11/11 03:30:22;;;;;;;38.10;22.33;;;8.60;99.90;;;;;;4981697;28;20477;-66
2021/11/11 03:32:49;;;;;;;33.30;21.63;;;8.60;99.90;;;;;;4982998;28;20437;-66
2021/11/11 03:35:14;;;;;;;39.07;24.50;;;8.60;99.90;;;;;;4981546;28;20483;-66
2021/11/11 03:37:43;;;;;;;34.80;22.10;;;8.60;99.90;;;;;;4981598;28;20462;-66
2021/11/11 03:40:13;;;;;;;33.50;21.27;;;8.50;99.90;;;;;;4980456;28;20175;-66
2021/11/11 03:42:39;;;;;;;34.90;21.40;;;8.60;99.90;;;;;;4982134;28;20474;-66
2021/11/11 03:45:07;;;;;;;38.07;21.37;;;8.50;99.90;;;;;;4979261;28;20783;-66
2021/11/11 03:47:32;;;;;;;40.37;22.93;;;8.60;99.90;;;;;;4980936;28;20474;-66
2021/11/11 03:49:58;;;;;;;35.73;21.67;;;8.60;99.90;;;;;;4998511;28;20518;-66
2021/11/11 03:52:24;;;;;;;36.00;22.50;;;8.60;99.90;;;;;;4979440;28;20187;-66
2021/11/11 03:54:49;;;;;;;34.80;20.70;;;8.60;99.90;;;;;;4982057;28;20175;-66
2021/11/11 03:57:15;;;;;;;38.97;21.77;;;8.60;99.90;;;;;;4981208;28;20183;-66
2021/11/11 03:59:41;;;;;;;40.77;25.43;;;8.60;99.90;;;;;;4979855;28;20236;-66
2021/11/11 04:02:07;;;;;;;40.97;24.70;;;8.60;99.90;;;;;;4981869;28;20222;-66
2021/11/11 04:04:33;;;;;;;42.60;22.83;;;8.50;99.90;;;;;;4982198;28;20187;-66
2021/11/11 04:06:58;;;;;;;47.53;26.30;;;8.50;99.90;;;;;;4983631;28;20504;-65
2021/11/11 04:09:24;;;;;;;45.27;25.20;;;8.50;99.90;;;;;;4984738;28;20180;-66
2021/11/11 04:11:50;;;;;;;37.87;23.73;;;8.50;99.90;;;;;;4985864;28;20204;-66
2021/11/11 04:14:17;;;;;;;37.83;22.10;;;8.50;99.90;;;;;;4984484;28;20318;-66
2021/11/11 04:16:43;;;;;;;46.87;25.00;;;8.50;99.90;;;;;;4985069;28;20439;-66
2021/11/11 04:19:08;;;;;;;39.20;22.37;;;8.50;99.90;;;;;;4984063;28;20434;-66
2021/11/11 04:21:34;;;;;;;40.07;25.33;;;8.50;99.90;;;;;;4986261;28;20191;-66
2021/11/11 04:24:00;;;;;;;46.43;24.77;;;8.60;99.90;;;;;;4987999;28;20194;-66
2021/11/11 04:26:29;;;;;;;41.27;24.30;;;8.60;99.90;;;;;;4984747;28;20192;-66
2021/11/11 04:31:48;;;;;;;37.27;22.47;;;8.60;99.90;;;;;;4984073;28;20807;-66
2021/11/11 04:34:15;;;;;;;37.17;21.73;;;8.60;99.90;;;;;;4985349;28;20460;-66
2021/11/11 04:52:50;;;;;;;51.97;26.03;;;8.60;99.90;;;;;;4985460;28;20433;-73
2021/11/11 05:03:13;;;;;;;44.47;26.10;;;8.60;99.90;;;;;;4984417;28;20437;-73
2021/11/11 05:05:39;;;;;;;38.63;23.67;;;8.60;99.90;;;;;;4984279;28;20430;-66
2021/11/11 05:08:05;;;;;;;50.07;27.17;;;8.60;99.90;;;;;;4985004;28;20596;-66
2021/11/11 05:10:31;;;;;;;49.07;27.17;;;8.60;99.90;;;;;;4984154;28;20470;-66
2021/11/11 05:12:57;;;;;;;46.63;26.33;;;8.60;99.90;;;;;;4985268;28;20430;-66
2021/11/11 05:15:23;;;;;;;45.07;28.40;;;8.60;99.90;;;;;;4983034;28;20438;-66
2021/11/11 05:17:49;;;;;;;43.70;26.30;;;8.60;99.90;;;;;;4982108;28;20488;-66
2021/11/11 05:20:17;;;;;;;48.17;26.30;;;8.60;99.90;;;;;;4982387;28;20451;-66
2021/11/11 05:22:43;;;;;;;49.23;28.60;;;8.50;99.90;;;;;;4982959;28;20485;-66
2021/11/11 05:25:11;;;;;;;47.23;27.47;;;8.50;99.90;;;;;;4983653;28;20449;-66
2021/11/11 05:27:37;;;;;;;42.70;23.87;;;8.60;99.90;;;;;;4983545;28;20431;-66
2021/11/11 05:30:05;;;;;;;45.70;25.53;;;8.60;99.90;;;;;;5000955;28;20904;-66
2021/11/11 05:32:32;;;;;;;45.63;26.40;;;8.60;99.90;;;;;;4985415;28;20426;-66
2021/11/11 05:34:58;;;;;;;49.40;25.70;;;8.60;99.90;;;;;;4984314;28;20905;-66
2021/11/11 05:37:24;;;;;;;45.83;25.53;;;8.60;99.90;;;;;;4981918;28;20443;-66
2021/11/11 05:39:49;;;;;;;48.97;27.73;;;8.60;99.90;;;;;;4982994;28;20176;-66
2021/11/11 05:42:15;;;;;;;45.77;25.13;;;8.60;99.90;;;;;;4985027;28;20175;-66
2021/11/11 05:44:41;;;;;;;41.83;25.10;;;8.60;99.90;;;;;;4983672;28;20525;-66
2021/11/11 05:47:07;;;;;;;42.80;24.80;;;8.60;99.90;;;;;;4982823;28;20269;-66
2021/11/11 05:49:33;;;;;;;44.17;25.90;;;8.60;99.90;;;;;;4983121;28;20904;-66
2021/11/11 05:51:58;;;;;;;45.47;27.77;;;8.60;99.90;;;;;;4983103;28;20195;-66
2021/11/11 05:54:24;;;;;;;51.03;25.23;;;8.60;99.90;;;;;;4982518;28;20180;-66
2021/11/11 05:56:50;;;;;;;46.30;25.10;;;8.60;99.90;;;;;;4982756;28;20215;-66
2021/11/11 05:59:16;;;;;;;50.23;24.47;;;8.60;99.90;;;;;;4979135;28;20657;-66
2021/11/11 06:01:41;;;;;;;52.87;28.80;;;8.60;99.90;;;;;;4981006;28;20188;-66
2021/11/11 06:04:07;;;;;;;46.37;27.47;;;8.60;99.90;;;;;;4982389;28;20434;-66
2021/11/11 06:06:34;;;;;;;53.07;28.87;;;8.60;99.90;;;;;;4982215;28;20633;-66
2021/11/11 06:09:00;;;;;;;48.53;25.90;;;8.60;99.90;;;;;;4982724;28;20171;-66
2021/11/11 06:11:26;;;;;;;44.60;23.70;;;8.60;99.90;;;;;;4982487;28;20506;-66
2021/11/11 06:13:51;;;;;;;47.87;24.43;;;8.60;99.90;;;;;;4983755;28;20266;-66
2021/11/11 06:16:17;;;;;;;48.63;26.47;;;8.60;99.90;;;;;;4982529;28;20180;-66
2021/11/11 06:18:43;;;;;;;48.50;29.87;;;8.60;99.90;;;;;;4979477;28;20637;-66
2021/11/11 06:21:08;;;;;;;48.07;25.70;;;8.70;99.90;;;;;;4983162;28;20613;-66
2021/11/11 06:23:35;;;;;;;50.60;28.70;;;8.70;99.90;;;;;;4983392;28;20818;-66
2021/11/11 06:26:03;;;;;;;43.87;24.20;;;8.70;99.90;;;;;;4984027;28;20524;-66
2021/11/11 06:28:30;;;;;;;50.40;25.80;;;8.70;99.90;;;;;;4980559;28;20513;-66
2021/11/11 06:30:55;;;;;;;48.63;25.80;;;8.70;99.90;;;;;;4982052;28;20466;-66
2021/11/11 06:33:22;;;;;;;51.20;26.93;;;8.70;99.90;;;;;;4983722;28;20448;-66
2021/11/11 06:35:48;;;;;;;55.27;27.97;;;8.70;99.90;;;;;;4982722;28;20272;-66
2021/11/11 06:38:14;;;;;;;52.30;28.83;;;8.70;99.90;;;;;;4978314;28;20490;-66
2021/11/11 06:40:40;;;;;;;48.07;29.00;;;8.60;99.90;;;;;;4982675;28;20632;-66
2021/11/11 06:43:06;;;;;;;45.43;27.20;;;8.70;99.90;;;;;;4981282;28;20504;-66
2021/11/11 06:45:38;;;;;;;57.00;28.63;;;8.70;99.90;;;;;;4979557;28;20422;-65
2021/11/11 06:48:07;;;;;;;54.23;28.60;;;8.70;99.90;;;;;;4981637;28;20514;-66
2021/11/11 06:50:33;;;;;;;52.83;29.90;;;8.70;99.90;;;;;;4980916;28;20962;-73
2021/11/11 06:52:59;;;;;;;56.47;31.00;;;8.60;99.90;;;;;;4983187;28;20434;-73
2021/11/11 06:55:24;;;;;;;51.77;31.63;;;8.80;99.90;;;;;;4981215;28;20259;-73
2021/11/11 06:57:50;;;;;;;56.17;31.47;;;8.80;99.90;;;;;;4982274;28;20201;-73
2021/11/11 07:00:16;;;;;;;56.90;31.60;;;8.70;99.90;;;;;;4981395;28;20258;-73
2021/11/11 07:02:42;;;;;;;53.90;30.60;;;8.70;99.90;;;;;;4983457;28;20203;-73
2021/11/11 07:05:09;;;;;;;78.03;33.80;;;8.70;99.90;;;;;;4978116;28;20438;-73
2021/11/11 07:07:34;;;;;;;55.83;32.27;;;8.70;99.90;;;;;;4975089;28;20197;-73
2021/11/11 07:10:00;;;;;;;61.93;33.47;;;8.70;99.90;;;;;;4980774;28;20549;-73
2021/11/11 07:12:26;;;;;;;59.87;32.63;;;8.80;99.90;;;;;;4980936;28;20513;-73
2021/11/11 07:14:51;;;;;;;53.23;29.00;;;8.80;99.90;;;;;;4983759;28;20435;-73
2021/11/11 07:17:17;;;;;;;60.17;32.23;;;8.70;99.90;;;;;;4986593;28;20511;-73
2021/11/11 07:19:43;;;;;;;63.87;31.90;;;8.70;99.90;;;;;;4983545;28;20655;-73
2021/11/11 07:22:09;;;;;;;62.70;34.47;;;8.70;99.90;;;;;;4982254;28;20180;-73
2021/11/11 07:24:34;;;;;;;60.57;32.70;;;8.70;99.90;;;;;;4983580;28;20245;-73
2021/11/11 07:27:00;;;;;;;58.43;33.73;;;8.70;99.90;;;;;;4998740;28;20183;-73
2021/11/11 07:29:27;;;;;;;69.73;35.97;;;8.70;99.90;;;;;;4998812;28;20667;-73
2021/11/11 07:31:54;;;;;;;53.33;33.10;;;8.70;99.90;;;;;;4984179;28;20936;-73
2021/11/11 07:34:24;;;;;;;61.73;33.17;;;8.70;99.90;;;;;;4983511;28;20418;-73
2021/11/11 07:36:52;;;;;;;60.73;36.43;;;8.70;99.90;;;;;;4983270;28;20424;-73
2021/11/11 07:39:18;;;;;;;70.90;36.57;;;8.60;99.90;;;;;;4983029;28;20891;-73
2021/11/11 07:41:45;;;;;;;61.93;36.07;;;8.70;99.90;;;;;;4984116;28;20414;-73
2021/11/11 07:44:12;;;;;;;65.40;36.43;;;8.70;99.90;;;;;;4987894;28;20500;-73
2021/11/11 07:46:40;;;;;;;57.50;32.40;;;8.70;99.90;;;;;;4987640;28;20415;-73
2021/11/11 07:49:07;;;;;;;62.37;35.57;;;8.70;99.90;;;;;;4987716;28;20505;-73
2021/11/11 07:51:32;;;;;;;59.57;33.60;;;8.80;99.90;;;;;;4986521;28;20889;-73
2021/11/11 07:54:00;;;;;;;61.03;34.97;;;8.80;99.90;;;;;;4987059;28;20450;-73
2021/11/11 07:56:27;;;;;;;56.00;33.53;;;8.80;99.90;;;;;;4987506;28;20414;-73
2021/11/11 07:58:53;;;;;;;71.53;34.37;;;8.70;99.90;;;;;;4986992;28;20812;-73
2021/11/11 08:01:19;;;;;;;63.40;37.07;;;8.70;99.90;;;;;;4988002;28;20442;-73
2021/11/11 08:03:44;;;;;;;60.00;31.80;;;8.70;99.90;;;;;;4986293;28;20434;-73
2021/11/11 08:06:12;;;;;;;54.60;33.90;;;8.80;99.90;;;;;;4986672;28;20450;-73
2021/11/11 08:08:39;;;;;;;58.80;32.90;;;8.80;99.90;;;;;;4987123;28;20453;-73
2021/11/11 08:11:05;;;;;;;62.70;35.20;;;8.80;99.90;;;;;;4986014;28;20463;-73
2021/11/11 08:13:31;;;;;;;58.97;32.80;;;8.80;99.90;;;;;;4986504;28;20441;-73
2021/11/11 08:15:57;;;;;;;60.50;31.30;;;8.80;99.90;;;;;;4986955;28;20419;-73
2021/11/11 08:18:22;;;;;;;62.37;31.60;;;8.80;99.90;;;;;;5002300;28;20443;-73
2021/11/11 08:20:49;;;;;;;64.03;32.60;;;8.80;99.90;;;;;;4986047;28;20191;-73
2021/11/11 08:23:18;;;;;;;59.33;32.47;;;8.80;99.90;;;;;;4987709;28;20201;-73
2021/11/11 08:25:47;;;;;;;49.00;28.67;;;8.80;99.90;;;;;;4986930;28;20414;-73
2021/11/11 08:28:17;;;;;;;52.70;28.10;;;8.90;99.90;;;;;;4986493;28;20526;-73
2021/11/11 08:30:45;;;;;;;55.13;30.50;;;8.80;99.90;;;;;;4987157;28;20469;-73
2021/11/11 08:33:11;;;;;;;53.30;29.47;;;8.80;99.90;;;;;;5001863;28;20426;-73
2021/11/11 08:35:38;;;;;;;50.73;28.80;;;8.90;99.90;;;;;;4986486;28;20747;-73
2021/11/11 08:38:04;;;;;;;59.97;31.67;;;8.90;99.90;;;;;;5001772;28;20651;-73
2021/11/11 08:40:31;;;;;;;54.37;28.50;;;8.90;99.90;;;;;;4987119;28;20438;-73
2021/11/11 08:42:59;;;;;;;52.63;28.30;;;9.00;99.90;;;;;;4986250;28;20418;-73
2021/11/11 08:45:27;;;;;;;49.10;27.00;;;9.00;99.90;;;;;;4986138;28;20458;-73
2021/11/11 08:47:54;;;;;;;50.83;28.43;;;9.00;99.90;;;;;;4986214;28;20422;-73
2021/11/11 08:50:21;;;;;;;56.73;27.30;;;9.10;99.90;;;;;;4986088;28;20463;-66
2021/11/11 08:52:53;;;;;;;51.03;29.53;;;9.00;99.90;;;;;;4986640;28;20503;-66
2021/11/11 08:55:22;;;;;;;50.80;27.30;;;9.10;99.90;;;;;;4986188;28;20402;-66
2021/11/11 08:57:48;;;;;;;62.30;27.47;;;9.20;99.90;;;;;;4987303;28;20438;-66
2021/11/11 09:00:19;;;;;;;51.23;26.87;;;9.20;99.90;;;;;;4984068;28;20530;-66
2021/11/11 09:02:50;;;;;;;45.27;26.57;;;9.10;99.90;;;;;;4986111;28;20406;-66
2021/11/11 09:05:17;;;;;;;45.43;27.03;;;9.20;99.90;;;;;;5001181;28;20482;-66
2021/11/11 09:07:43;;;;;;;42.17;24.73;;;9.20;99.90;;;;;;4986707;28;20426;-66
2021/11/11 09:10:14;;;;;;;59.00;25.87;;;9.10;99.90;;;;;;4985396;28;20492;-66
2021/11/11 09:12:39;;;;;;;40.40;24.17;;;9.20;99.90;;;;;;4987292;28;20403;-66
2021/11/11 09:15:10;;;;;;;41.63;22.70;;;9.30;99.90;;;;;;4984973;28;20434;-66
2021/11/11 09:17:38;;;;;;;46.83;25.83;;;9.30;99.90;;;;;;4984409;28;20279;-66
2021/11/11 09:20:05;;;;;;;42.20;24.43;;;9.30;99.90;;;;;;4984792;28;20897;-66
2021/11/11 09:22:34;;;;;;;43.53;24.23;;;9.40;99.90;;;;;;4985708;28;20419;-66
2021/11/11 09:25:03;;;;;;;41.90;22.83;;;9.30;99.90;;;;;;4985520;28;20443;-66
2021/11/11 09:27:29;;;;;;;41.77;23.00;;;9.30;99.90;;;;;;4986222;28;20424;-66
2021/11/11 09:29:55;;;;;;;37.03;23.33;;;9.40;99.90;;;;;;4985942;28;20430;-66
2021/11/11 09:32:21;;;;;;;38.60;22.90;;;9.40;99.90;;;;;;4985127;28;20204;-66
2021/11/11 09:34:47;;;;;;;42.70;22.83;;;9.50;99.90;;;;;;4984043;28;20438;-66
2021/11/11 09:37:12;;;;;;;43.37;22.37;;;9.50;99.90;;;;;;4984977;28;20465;-66
2021/11/11 09:39:38;;;;;;;41.00;22.47;;;9.40;99.90;;;;;;4984593;28;20194;-66
2021/11/11 09:42:05;;;;;;;47.40;22.63;;;9.50;99.90;;;;;;4985986;28;20201;-66
2021/11/11 09:44:31;;;;;;;43.13;22.37;;;9.50;99.90;;;;;;4985717;28;20256;-66
2021/11/11 09:46:57;;;;;;;43.53;23.37;;;9.60;99.90;;;;;;4986079;28;20416;-66
2021/11/11 09:49:23;;;;;;;34.67;21.03;;;9.50;99.90;;;;;;4985371;28;20204;-66
2021/11/11 09:51:50;;;;;;;41.17;22.63;;;9.60;99.90;;;;;;4983996;28;20517;-66
2021/11/11 09:59:49;;;;;;;38.77;20.57;;;9.70;99.90;;;;;;4984936;28;20768;-66
2021/11/11 10:02:16;;;;;;;37.00;18.97;;;9.60;99.90;;;;;;4984130;28;20585;-66
2021/11/11 10:04:42;;;;;;;32.73;20.40;;;9.60;99.90;;;;;;4985718;28;20777;-66
2021/11/11 10:07:08;;;;;;;32.57;21.03;;;9.60;99.90;;;;;;5000000;28;20423;-66
2021/11/11 10:09:40;;;;;;;36.83;19.73;;;9.70;99.90;;;;;;4984342;28;20643;-66
2021/11/11 10:12:13;;;;;;;33.70;19.87;;;9.60;99.90;;;;;;4984178;28;20459;-66
2021/11/11 10:14:40;;;;;;;37.03;20.77;;;9.60;99.90;;;;;;4984258;28;20510;-66
2021/11/11 10:17:09;;;;;;;33.87;20.50;;;9.70;99.90;;;;;;5000631;28;20429;-66
2021/11/11 10:19:38;;;;;;;36.00;20.03;;;9.70;99.90;;;;;;4984248;28;20880;-66
2021/11/11 10:22:14;;;;;;;28.90;18.73;;;9.70;99.90;;;;;;4984991;28;20422;-66
2021/11/11 10:25:01;;;;;;;37.33;20.40;;;9.70;99.90;;;;;;4984568;28;20433;-66
2021/11/11 10:27:39;;;;;;;32.93;17.93;;;9.70;99.90;;;;;;4984614;28;20407;-66
2021/11/11 10:30:25;;;;;;;33.20;18.90;;;9.80;99.90;;;;;;4983841;28;20533;-66
2021/11/11 10:32:56;;;;;;;26.77;18.63;;;9.80;99.90;;;;;;4984949;28;20434;-66
2021/11/11 10:35:27;;;;;;;30.27;17.30;;;9.70;99.90;;;;;;4984949;28;20884;-66
2021/11/11 10:38:00;;;;;;;35.50;18.37;;;9.70;99.90;;;;;;4983401;28;20430;-66
2021/11/11 10:40:31;;;;;;;29.67;18.43;;;9.80;99.90;;;;;;4983699;28;20442;-66
2021/11/11 10:42:58;;;;;;;28.10;16.80;;;9.80;99.90;;;;;;4984197;28;20415;-66
2021/11/11 10:45:29;;;;;;;23.53;16.07;;;9.90;99.90;;;;;;4983632;28;20809;-66
2021/11/11 10:47:59;;;;;;;29.70;17.90;;;9.90;99.90;;;;;;4983881;28;20522;-66
2021/11/11 10:50:34;;;;;;;29.00;17.83;;;9.90;99.90;;;;;;4984242;28;20466;-66
2021/11/11 10:53:08;;;;;;;27.00;17.73;;;9.80;99.90;;;;;;4984928;28;20417;-66
2021/11/11 10:55:40;;;;;;;26.50;17.10;;;9.80;99.90;;;;;;4984042;28;21011;-66
2021/11/11 10:58:12;;;;;;;28.83;17.77;;;9.80;99.90;;;;;;4982657;28;20454;-66
2021/11/11 11:00:37;;;;;;;30.33;18.57;;;9.80;99.90;;;;;;4981307;28;20486;-66
2021/11/11 11:03:15;;;;;;;26.80;16.43;;;9.80;99.90;;;;;;4983299;28;20477;-66
2021/11/11 11:06:06;;;;;;;31.57;17.90;;;9.80;99.90;;;;;;4983469;28;20187;-67
2021/11/11 11:08:34;;;;;;;26.93;17.83;;;9.80;99.90;;;;;;4982640;28;20879;-66
2021/11/11 11:11:15;;;;;;;28.83;17.37;;;9.80;99.90;;;;;;4982949;28;20462;-66
2021/11/11 11:13:44;;;;;;;25.03;16.43;;;9.90;99.90;;;;;;4984842;28;20456;-70
2021/11/11 11:16:13;;;;;;;28.10;17.33;;;9.90;99.90;;;;;;4981522;28;20443;-68
2021/11/11 11:18:42;;;;;;;30.43;17.23;;;9.90;99.90;;;;;;4983172;28;20490;-68
2021/11/11 11:21:16;;;;;;;28.70;16.63;;;9.90;99.90;;;;;;4982741;28;20431;-69
2021/11/11 11:23:49;;;;;;;27.00;17.13;;;9.90;99.90;;;;;;4983965;28;20425;-70
2021/11/11 11:26:18;;;;;;;27.40;16.53;;;10.00;99.90;;;;;;4983839;28;20502;-67
2021/11/11 11:29:03;;;;;;;30.20;17.50;;;9.90;99.90;;;;;;4984778;28;20442;-68
2021/11/11 11:31:33;;;;;;;31.23;18.27;;;10.00;99.90;;;;;;4982517;28;20483;-67
2021/11/11 11:34:04;;;;;;;28.27;17.40;;;10.00;99.90;;;;;;4983613;28;20953;-67
2021/11/11 11:36:36;;;;;;;25.83;15.93;;;10.00;99.90;;;;;;4983207;28;20419;-68
2021/11/11 11:39:03;;;;;;;27.63;17.40;;;10.10;99.90;;;;;;4982683;28;20435;-67
2021/11/11 11:41:35;;;;;;;24.97;16.13;;;10.20;99.90;;;;;;4983360;28;20509;-67
2021/11/11 11:44:22;;;;;;;34.40;16.43;;;10.20;99.90;;;;;;4983879;28;20774;-67
2021/11/11 11:47:04;;;;;;;23.47;15.10;;;10.20;99.90;;;;;;4984202;28;20790;-67
2021/11/11 11:49:31;;;;;;;24.10;16.17;;;10.20;99.90;;;;;;4981992;28;20446;-67
2021/11/11 11:51:57;;;;;;;26.20;15.03;;;10.20;99.90;;;;;;4982621;28;20466;-67
2021/11/11 11:54:35;;;;;;;22.23;14.87;;;10.20;99.90;;;;;;4983204;28;20419;-67
2021/11/11 11:57:05;;;;;;;23.00;16.00;;;10.20;99.90;;;;;;4983439;28;20407;-67
2021/11/11 11:59:37;;;;;;;25.30;15.90;;;10.10;99.90;;;;;;4999640;28;20455;-67
2021/11/11 12:05:17;;;;;;;26.57;16.93;;;10.00;99.90;;;;;;4973647;28;20433;-67
2021/11/11 12:13:28;;;;;;;18.93;14.00;;;10.10;99.90;;;;;;4983706;28;20506;-67
2021/11/11 12:39:45;;;;;;;25.53;12.83;;;10.10;99.90;;;;;;4984687;28;20430;-68
2021/11/11 12:42:23;;;;;;;21.83;14.20;;;10.10;99.90;;;;;;4987039;28;20754;-68
2021/11/11 12:45:07;;;;;;;22.30;14.40;;;10.10;99.90;;;;;;4986383;28;20918;-67
2021/11/11 12:47:47;;;;;;;21.70;14.30;;;10.10;99.90;;;;;;4986338;28;20411;-67
2021/11/11 12:50:31;;;;;;;20.97;13.80;;;10.20;99.90;;;;;;4988093;28;20874;-74
2021/11/11 12:53:16;;;;;;;21.03;13.20;;;10.20;99.90;;;;;;4985673;28;20434;-74
2021/11/11 12:56:00;;;;;;;24.00;13.30;;;10.20;99.90;;;;;;4984033;28;20908;-74
2021/11/11 12:58:32;;;;;;;22.80;13.97;;;10.20;99.90;;;;;;4986093;28;20741;-74
2021/11/11 13:01:05;;;;;;;22.97;15.57;;;10.20;99.90;;;;;;4984225;28;20451;-73
2021/11/11 13:03:47;;;;;;;21.80;14.80;;;10.20;99.90;;;;;;4984679;28;20423;-74
2021/11/11 13:06:31;;;;;;;19.70;13.90;;;10.10;99.90;;;;;;4986286;28;20501;-74
2021/11/11 13:08:58;;;;;;;20.20;14.23;;;10.10;99.90;;;;;;4984182;28;20425;-74
2021/11/11 13:11:29;;;;;;;23.20;14.77;;;10.10;99.90;;;;;;4986229;28;20455;-74
2021/11/11 13:14:14;;;;;;;27.50;15.50;;;10.10;99.90;;;;;;4985272;28;20439;-74
2021/11/11 13:16:41;;;;;;;24.93;15.70;;;10.20;99.90;;;;;;4986504;28;20411;-74
2021/11/11 13:19:07;;;;;;;23.10;14.97;;;10.20;99.90;;;;;;4985442;28;20482;-74
2021/11/11 13:21:49;;;;;;;24.80;15.03;;;10.20;99.90;;;;;;4983413;28;20477;-74
2021/11/11 13:59:57;;;;;;;21.30;14.00;;;10.00;99.90;;;;;;4982444;28;20440;-74
2021/11/11 16:26:42;;;;;;;41.77;24.67;;;9.60;99.90;;;;;;4985423;28;20431;-73
2021/11/11 16:29:08;;;;;;;46.37;25.27;;;9.60;99.90;;;;;;4985784;28;20481;-73
2021/11/11 16:31:33;;;;;;;45.90;26.40;;;9.60;99.90;;;;;;4986593;28;20500;-73
2021/11/11 16:34:00;;;;;;;47.73;27.40;;;9.60;99.90;;;;;;4984391;28;20912;-73
2021/11/11 16:36:30;;;;;;;50.60;28.90;;;9.60;99.90;;;;;;4986160;28;20172;-73
2021/11/11 16:38:56;;;;;;;43.03;27.37;;;9.60;99.90;;;;;;4985498;28;20433;-73
2021/11/11 16:41:22;;;;;;;48.43;26.37;;;9.50;99.90;;;;;;4984298;28;20942;-73
2021/11/11 16:43:48;;;;;;;46.80;27.07;;;9.50;99.90;;;;;;4985854;28;20463;-73